Time;durP1;ratioP1;P1;durP2;ratioP2;P2;SDS_P1;SDS_P2;PMS_P1;PMS_P2;Temp;Humidity;BMP_temperature;BMP_pressure;BME280_temperature;BME280_humidity;BME280_pressure;Samples;Min_cycle;Max_cycle;Signal;HPM_P1;HPM_P2
2023/06/03 00:01:18;;;;;;;6.40;2.60;;;;;;;;;;4996951;28;20046;-78
2023/06/03 00:03:46;;;;;;;8.80;2.73;;;;;;;;;;4994620;28;20030;-78
2023/06/03 00:06:12;;;;;;;3.53;1.80;;;;;;;;;;5015805;28;20093;-77
2023/06/03 00:08:42;;;;;;;13.70;3.13;;;;;;;;;;5001317;28;20156;-78
2023/06/03 00:11:08;;;;;;;10.10;3.13;;;;;;;;;;5000974;28;20026;-78
2023/06/03 00:13:34;;;;;;;7.80;3.13;;;;;;;;;;5000926;28;20030;-77
2023/06/03 00:16:00;;;;;;;14.23;2.90;;;;;;;;;;5002945;28;20045;-78
2023/06/03 00:18:26;;;;;;;8.63;2.40;;;;;;;;;;5017331;28;20068;-78
2023/06/03 00:20:55;;;;;;;7.00;2.27;;;;;;;;;;5001731;28;20028;-77
2023/06/03 00:23:21;;;;;;;9.30;3.33;;;;;;;;;;4999825;28;20030;-78
2023/06/03 00:25:47;;;;;;;6.30;2.20;;;;;;;;;;5021433;28;20023;-79
2023/06/03 00:28:13;;;;;;;7.77;2.77;;;;;;;;;;5005594;28;20081;-77
2023/06/03 00:30:39;;;;;;;5.07;2.60;;;;;;;;;;5005260;28;20056;-79
2023/06/03 00:33:05;;;;;;;8.80;3.10;;;;;;;;;;5001850;28;20098;-78
2023/06/03 00:35:32;;;;;;;7.90;2.63;;;;;;;;;;5000569;28;20030;-77
2023/06/03 00:37:58;;;;;;;4.70;2.43;;;;;;;;;;5004349;28;20023;-78
2023/06/03 00:40:24;;;;;;;6.53;2.47;;;;;;;;;;5021625;28;20046;-78
2023/06/03 00:42:51;;;;;;;6.50;2.63;;;;;;;;;;5019731;28;20046;-78
2023/06/03 00:45:17;;;;;;;6.93;2.57;;;;;;;;;;5018989;28;20098;-77
2023/06/03 00:47:43;;;;;;;10.50;3.10;;;;;;;;;;5017531;28;20015;-78
2023/06/03 00:50:13;;;;;;;5.87;2.50;;;;;;;;;;5004017;28;20019;-78
2023/06/03 00:52:39;;;;;;;6.33;2.87;;;;;;;;;;5015155;28;20010;-78
2023/06/03 00:55:06;;;;;;;9.10;2.23;;;;;;;;;;5002933;28;20034;-77
2023/06/03 00:57:32;;;;;;;12.27;2.20;;;;;;;;;;5002262;28;20125;-79
2023/06/03 00:59:58;;;;;;;5.97;2.20;;;;;;;;;;5018839;28;20050;-78
2023/06/03 01:02:24;;;;;;;5.60;2.73;;;;;;;;;;5005785;28;20026;-78
2023/06/03 01:04:55;;;;;;;8.20;2.50;;;;;;;;;;5012079;28;20035;-78
2023/06/03 01:07:46;;;;;;;10.50;2.50;;;;;;;;;;5005771;28;20027;-76
2023/06/03 01:10:21;;;;;;;6.40;2.70;;;;;;;;;;4996718;28;20041;-78
2023/06/03 01:13:02;;;;;;;8.33;3.10;;;;;;;;;;5004294;28;20025;-79
2023/06/03 01:15:29;;;;;;;7.87;2.90;;;;;;;;;;5001334;28;20015;-78
2023/06/03 01:18:00;;;;;;;8.83;2.90;;;;;;;;;;5016377;28;20019;-78
2023/06/03 01:20:28;;;;;;;9.13;3.00;;;;;;;;;;4998016;28;20037;-78
2023/06/03 01:22:56;;;;;;;9.70;3.20;;;;;;;;;;5017699;28;20027;-77
2023/06/03 01:25:26;;;;;;;10.40;3.20;;;;;;;;;;5000920;28;20025;-78
2023/06/03 01:27:53;;;;;;;7.47;2.73;;;;;;;;;;5000706;28;20014;-79
2023/06/03 01:30:20;;;;;;;5.10;2.83;;;;;;;;;;5001891;28;20030;-78
2023/06/03 01:32:47;;;;;;;6.47;2.63;;;;;;;;;;5013943;28;20058;-78
2023/06/03 01:35:16;;;;;;;6.63;2.73;;;;;;;;;;5013867;28;20026;-80
2023/06/03 01:37:42;;;;;;;6.73;2.83;;;;;;;;;;4998134;28;20151;-77
2023/06/03 01:40:09;;;;;;;9.87;2.60;;;;;;;;;;4999900;28;20025;-79
2023/06/03 01:42:35;;;;;;;6.37;2.40;;;;;;;;;;5019163;28;20026;-78
2023/06/03 01:45:03;;;;;;;6.23;3.07;;;;;;;;;;4999333;28;20105;-78
2023/06/03 01:47:29;;;;;;;7.93;2.30;;;;;;;;;;5005351;28;20038;-79
2023/06/03 01:49:55;;;;;;;11.23;3.27;;;;;;;;;;4998654;28;20049;-78
2023/06/03 01:52:21;;;;;;;9.57;3.00;;;;;;;;;;4996782;28;20022;-79
2023/06/03 01:54:47;;;;;;;5.93;2.20;;;;;;;;;;5014629;28;20168;-78
2023/06/03 01:57:13;;;;;;;6.93;2.67;;;;;;;;;;5000638;28;20022;-78
2023/06/03 01:59:40;;;;;;;6.50;2.90;;;;;;;;;;5002108;28;20029;-79
2023/06/03 02:02:06;;;;;;;8.63;3.07;;;;;;;;;;5001365;28;20022;-79
2023/06/03 02:04:34;;;;;;;7.53;2.77;;;;;;;;;;4998529;28;20122;-78
2023/06/03 02:07:03;;;;;;;5.10;2.70;;;;;;;;;;5017726;28;20037;-77
2023/06/03 02:09:31;;;;;;;6.20;2.27;;;;;;;;;;5001875;28;20041;-79
2023/06/03 02:11:59;;;;;;;10.70;2.63;;;;;;;;;;5008468;23;20045;-81
2023/06/03 02:14:28;;;;;;;7.10;2.80;;;;;;;;;;4994539;28;20019;-80
2023/06/03 02:16:59;;;;;;;10.53;2.73;;;;;;;;;;4997081;28;20098;-79
2023/06/03 02:19:26;;;;;;;4.17;2.30;;;;;;;;;;4991528;28;20043;-80
2023/06/03 02:21:52;;;;;;;9.37;2.57;;;;;;;;;;4992736;28;20035;-81
2023/06/03 02:24:19;;;;;;;7.33;2.53;;;;;;;;;;4994669;28;20031;-80
2023/06/03 02:26:54;;;;;;;4.47;2.53;;;;;;;;;;4995890;28;20026;-77
2023/06/03 02:29:22;;;;;;;6.43;2.93;;;;;;;;;;4994052;28;20027;-80
2023/06/03 02:31:48;;;;;;;10.00;2.93;;;;;;;;;;4995409;28;20044;-77
2023/06/03 02:34:14;;;;;;;6.50;2.67;;;;;;;;;;4990085;28;20236;-78
2023/06/03 02:36:40;;;;;;;6.63;2.37;;;;;;;;;;4977874;28;20043;-78
2023/06/03 02:39:10;;;;;;;6.70;2.67;;;;;;;;;;4993294;28;20034;-78
2023/06/03 02:41:41;;;;;;;6.87;2.70;;;;;;;;;;4990075;28;20030;-77
2023/06/03 02:44:07;;;;;;;8.13;2.63;;;;;;;;;;4994320;28;20040;-80
2023/06/03 02:46:39;;;;;;;7.70;2.90;;;;;;;;;;4992790;28;20031;-79
2023/06/03 02:49:06;;;;;;;7.70;3.47;;;;;;;;;;4990943;28;20107;-79
2023/06/03 02:51:33;;;;;;;6.43;2.80;;;;;;;;;;4990555;28;20027;-78
2023/06/03 02:54:02;;;;;;;7.73;2.87;;;;;;;;;;4993178;28;20023;-80
2023/06/03 02:56:28;;;;;;;6.50;2.83;;;;;;;;;;4992845;28;20039;-79
2023/06/03 02:58:56;;;;;;;5.87;2.20;;;;;;;;;;4989649;28;20030;-78
2023/06/03 03:01:23;;;;;;;5.93;2.77;;;;;;;;;;4990774;28;20042;-78
2023/06/03 03:03:49;;;;;;;7.40;2.70;;;;;;;;;;4994591;28;20054;-77
2023/06/03 03:06:15;;;;;;;7.47;3.17;;;;;;;;;;4994703;28;20027;-78
2023/06/03 03:08:42;;;;;;;9.17;2.67;;;;;;;;;;4996047;28;20049;-79
2023/06/03 03:11:11;;;;;;;10.40;2.70;;;;;;;;;;4990193;28;20027;-79
2023/06/03 03:13:37;;;;;;;8.27;2.50;;;;;;;;;;4995450;28;20043;-79
2023/06/03 03:16:03;;;;;;;7.30;3.60;;;;;;;;;;4997474;28;20015;-78
2023/06/03 03:18:30;;;;;;;7.40;3.17;;;;;;;;;;4992830;28;20023;-78
2023/06/03 03:20:56;;;;;;;5.00;2.10;;;;;;;;;;4997670;28;20034;-77
2023/06/03 03:23:23;;;;;;;7.20;2.40;;;;;;;;;;4988404;28;20114;-78
2023/06/03 03:25:49;;;;;;;9.50;2.60;;;;;;;;;;4996013;28;20053;-78
2023/06/03 03:28:15;;;;;;;5.17;2.77;;;;;;;;;;4994017;28;20019;-78
2023/06/03 03:30:41;;;;;;;5.37;2.17;;;;;;;;;;4996152;28;20014;-78
2023/06/03 03:33:07;;;;;;;10.57;2.70;;;;;;;;;;4994743;28;20015;-79
2023/06/03 03:35:40;;;;;;;4.97;2.63;;;;;;;;;;4993588;28;20019;-77
2023/06/03 03:38:06;;;;;;;4.35;2.35;;;;;;;;;;4994562;28;20090;-79
2023/06/03 03:40:33;;;;;;;5.33;2.60;;;;;;;;;;4994626;28;20066;-79
2023/06/03 03:43:02;;;;;;;6.23;2.97;;;;;;;;;;4997065;28;20022;-77
2023/06/03 03:45:35;;;;;;;6.43;2.43;;;;;;;;;;4992836;28;20161;-78
2023/06/03 03:48:05;;;;;;;9.13;3.17;;;;;;;;;;4997945;28;20027;-79
2023/06/03 03:50:31;;;;;;;6.43;2.30;;;;;;;;;;4997536;28;20034;-78
2023/06/03 03:53:03;;;;;;;3.90;2.00;;;;;;;;;;4997259;28;20098;-78
2023/06/03 03:55:29;;;;;;;;;;;;;;;;;;4997875;28;20051;-78
2023/06/03 03:57:56;;;;;;;6.57;3.00;;;;;;;;;;4993038;28;19917;-78
2023/06/03 04:00:24;;;;;;;7.33;2.97;;;;;;;;;;4996130;28;20082;-77
2023/06/03 04:02:51;;;;;;;8.07;2.77;;;;;;;;;;4996597;28;20015;-77
2023/06/03 04:05:17;;;;;;;6.33;2.80;;;;;;;;;;5000112;28;20034;-78
2023/06/03 04:07:46;;;;;;;6.17;2.40;;;;;;;;;;4996656;28;20050;-79
2023/06/03 04:10:12;;;;;;;5.07;2.67;;;;;;;;;;4992263;28;20019;-79
2023/06/03 04:12:38;;;;;;;6.80;2.53;;;;;;;;;;4998184;28;20030;-79
2023/06/03 04:15:08;;;;;;;5.90;2.73;;;;;;;;;;4991744;28;20035;-79
2023/06/03 04:17:40;;;;;;;7.50;2.87;;;;;;;;;;4996566;28;20019;-78
2023/06/03 04:20:13;;;;;;;6.75;3.20;;;;;;;;;;4997138;28;20119;-79
2023/06/03 04:22:39;;;;;;;5.63;3.25;;;;;;;;;;4996774;28;20039;-79
2023/06/03 04:25:09;;;;;;;7.13;3.50;;;;;;;;;;4997185;28;20042;-78
2023/06/03 04:27:37;;;;;;;4.43;2.50;;;;;;;;;;5000432;28;20026;-80
2023/06/03 04:30:04;;;;;;;5.13;3.13;;;;;;;;;;4998483;28;20074;-79
2023/06/03 04:32:30;;;;;;;5.67;2.80;;;;;;;;;;5000098;28;20014;-79
2023/06/03 04:34:56;;;;;;;5.07;3.03;;;;;;;;;;4999008;28;20062;-78
2023/06/03 04:37:23;;;;;;;5.23;2.67;;;;;;;;;;4995893;28;20038;-79
2023/06/03 04:39:49;;;;;;;7.73;3.27;;;;;;;;;;5000090;28;20075;-79
2023/06/03 04:42:16;;;;;;;5.80;2.53;;;;;;;;;;4997810;28;20035;-81
2023/06/03 04:44:42;;;;;;;6.40;3.10;;;;;;;;;;4997174;28;20034;-79
2023/06/03 04:47:12;;;;;;;5.73;2.60;;;;;;;;;;4992959;28;20037;-78
2023/06/03 04:49:47;;;;;;;8.40;2.80;;;;;;;;;;4995825;28;20019;-79
2023/06/03 04:52:13;;;;;;;6.80;3.13;;;;;;;;;;4991491;28;20023;-79
2023/06/03 04:54:40;;;;;;;7.10;2.67;;;;;;;;;;4997144;28;20035;-81
2023/06/03 04:57:07;;;;;;;7.30;2.50;;;;;;;;;;4991850;28;20090;-79
2023/06/03 04:59:33;;;;;;;4.03;2.30;;;;;;;;;;4995641;28;20098;-81
2023/06/03 05:02:00;;;;;;;5.70;2.43;;;;;;;;;;4993549;28;20126;-80
2023/06/03 05:04:29;;;;;;;6.53;2.30;;;;;;;;;;4994934;28;20042;-80
2023/06/03 05:06:55;;;;;;;4.00;2.27;;;;;;;;;;4993574;28;20019;-79
2023/06/03 05:09:24;;;;;;;6.27;2.67;;;;;;;;;;4996312;28;20030;-80
2023/06/03 05:11:51;;;;;;;6.63;3.60;;;;;;;;;;4993612;28;20039;-80
2023/06/03 05:14:17;;;;;;;5.03;1.83;;;;;;;;;;4996476;28;20018;-78
2023/06/03 05:16:43;;;;;;;3.30;2.17;;;;;;;;;;4981712;28;20030;-80
2023/06/03 05:19:12;;;;;;;4.83;1.90;;;;;;;;;;4992736;28;20106;-80
2023/06/03 05:21:38;;;;;;;5.53;1.60;;;;;;;;;;4995005;28;20215;-79
2023/06/03 05:24:04;;;;;;;4.00;1.73;;;;;;;;;;4989703;28;20102;-78
2023/06/03 05:26:30;;;;;;;7.77;1.90;;;;;;;;;;4994192;28;20038;-80
2023/06/03 05:28:56;;;;;;;4.83;2.17;;;;;;;;;;4993284;28;20038;-78
2023/06/03 05:31:22;;;;;;;5.93;1.63;;;;;;;;;;4991105;28;20102;-79
2023/06/03 05:33:48;;;;;;;3.87;2.37;;;;;;;;;;4994521;28;20011;-79
2023/06/03 05:36:19;;;;;;;8.47;1.90;;;;;;;;;;4990765;28;20094;-80
2023/06/03 05:38:46;;;;;;;2.57;1.40;;;;;;;;;;4994632;28;20053;-81
2023/06/03 05:41:12;;;;;;;4.50;1.77;;;;;;;;;;4995840;28;20014;-79
2023/06/03 05:43:38;;;;;;;5.03;1.90;;;;;;;;;;4992176;28;20058;-79
2023/06/03 05:46:04;;;;;;;3.57;1.63;;;;;;;;;;4993793;28;20015;-79
2023/06/03 05:48:34;;;;;;;2.97;1.10;;;;;;;;;;4992092;28;20015;-79
2023/06/03 05:51:00;;;;;;;2.33;1.17;;;;;;;;;;4990888;28;20037;-78
2023/06/03 05:53:27;;;;;;;4.40;1.33;;;;;;;;;;4991910;28;20043;-79
2023/06/03 05:55:53;;;;;;;2.97;1.27;;;;;;;;;;4992009;28;20039;-79
2023/06/03 05:58:20;;;;;;;3.53;1.30;;;;;;;;;;4994406;28;20029;-80
2023/06/03 06:00:46;;;;;;;13.63;1.70;;;;;;;;;;4992087;28;20039;-78
2023/06/03 06:03:16;;;;;;;3.30;1.30;;;;;;;;;;4989878;28;20054;-79
2023/06/03 06:05:45;;;;;;;3.33;1.10;;;;;;;;;;4987150;28;20015;-78
2023/06/03 06:08:11;;;;;;;5.43;1.00;;;;;;;;;;4996471;28;20034;-79
2023/06/03 06:10:37;;;;;;;3.33;1.33;;;;;;;;;;4993857;28;20125;-78
2023/06/03 06:13:03;;;;;;;4.17;1.07;;;;;;;;;;4991103;28;20042;-78
2023/06/03 06:15:29;;;;;;;5.80;1.10;;;;;;;;;;4989975;28;20019;-78
2023/06/03 06:17:55;;;;;;;4.43;1.80;;;;;;;;;;4993017;28;20022;-78
2023/06/03 06:20:22;;;;;;;2.80;1.10;;;;;;;;;;4992880;28;20037;-78
2023/06/03 06:22:48;;;;;;;4.17;1.47;;;;;;;;;;4993582;28;20068;-79
2023/06/03 06:25:15;;;;;;;3.50;0.93;;;;;;;;;;4993165;28;20022;-77
2023/06/03 06:27:41;;;;;;;2.87;1.27;;;;;;;;;;4991338;28;20075;-78
2023/06/03 06:30:08;;;;;;;3.70;1.20;;;;;;;;;;4989199;28;20032;-78
2023/06/03 06:32:43;;;;;;;3.20;1.50;;;;;;;;;;4987091;28;20023;-78
2023/06/03 06:35:09;;;;;;;2.77;1.27;;;;;;;;;;4989176;28;20054;-78
2023/06/03 06:37:35;;;;;;;3.57;0.73;;;;;;;;;;4993570;28;20023;-79
2023/06/03 06:40:01;;;;;;;1.93;1.07;;;;;;;;;;4991197;28;20091;-78
2023/06/03 06:42:34;;;;;;;8.87;1.13;;;;;;;;;;4990253;28;20036;-79
2023/06/03 06:45:06;;;;;;;2.88;1.45;;;;;;;;;;4991029;28;20042;-78
2023/06/03 06:47:35;;;;;;;1.20;0.80;;;;;;;;;;4990779;28;20031;-78
2023/06/03 06:50:01;;;;;;;5.03;1.27;;;;;;;;;;4991726;28;20034;-79
2023/06/03 06:52:30;;;;;;;2.07;1.20;;;;;;;;;;4991786;28;20031;-79
2023/06/03 06:54:58;;;;;;;2.10;0.97;;;;;;;;;;4991080;28;20018;-78
2023/06/03 06:57:27;;;;;;;3.37;1.30;;;;;;;;;;4993794;28;20029;-77
2023/06/03 06:59:53;;;;;;;4.07;0.70;;;;;;;;;;4995288;28;20058;-79
2023/06/03 07:02:20;;;;;;;2.97;1.03;;;;;;;;;;4992857;28;20038;-78
2023/06/03 07:04:46;;;;;;;2.10;0.90;;;;;;;;;;4991802;28;20038;-78
2023/06/03 07:07:13;;;;;;;3.78;1.10;;;;;;;;;;4993429;28;20045;-79
2023/06/03 07:09:40;;;;;;;2.53;1.17;;;;;;;;;;4991571;28;20022;-79
2023/06/03 07:12:06;;;;;;;2.47;1.05;;;;;;;;;;4992815;28;20137;-78
2023/06/03 07:14:32;;;;;;;3.20;1.05;;;;;;;;;;4994117;28;20045;-77
2023/06/03 07:16:58;;;;;;;9.77;1.52;;;;;;;;;;4998690;28;20010;-78
2023/06/03 07:19:27;;;;;;;4.32;1.17;;;;;;;;;;4996787;28;20027;-78
2023/06/03 07:21:53;;;;;;;3.78;1.23;;;;;;;;;;4996513;28;20018;-78
2023/06/03 07:24:25;;;;;;;5.93;1.35;;;;;;;;;;4995604;28;20058;-79
2023/06/03 07:26:51;;;;;;;5.70;1.03;;;;;;;;;;4995954;28;20098;-78
2023/06/03 07:29:17;;;;;;;4.20;0.90;;;;;;;;;;4995558;28;20022;-78
2023/06/03 07:31:49;;;;;;;2.35;1.02;;;;;;;;;;4996825;28;20062;-78
2023/06/03 07:34:21;;;;;;;2.67;1.20;;;;;;;;;;4995751;28;20038;-81
2023/06/03 07:36:52;;;;;;;4.70;1.40;;;;;;;;;;5000237;28;20041;-79
2023/06/03 07:39:19;;;;;;;3.83;1.10;;;;;;;;;;4996369;28;20027;-80
2023/06/03 07:41:50;;;;;;;2.38;1.00;;;;;;;;;;4998832;28;20056;-79
2023/06/03 07:44:19;;;;;;;4.10;1.60;;;;;;;;;;4997950;28;20029;-77
2023/06/03 07:46:46;;;;;;;6.57;1.00;;;;;;;;;;5000279;28;20083;-77
2023/06/03 07:49:16;;;;;;;1.85;1.05;;;;;;;;;;5000384;28;20030;-79
2023/06/03 07:51:47;;;;;;;3.28;1.00;;;;;;;;;;5001102;28;20023;-79
2023/06/03 07:54:20;;;;;;;3.25;1.00;;;;;;;;;;4997929;28;20023;-78
2023/06/03 07:56:46;;;;;;;;;;;;;;;;;;4999282;28;20030;-78
2023/06/03 07:59:13;;;;;;;3.05;0.98;;;;;;;;;;4994781;28;19913;-78
2023/06/03 08:01:39;;;;;;;3.90;0.80;;;;;;;;;;5001224;28;20055;-78
2023/06/03 08:04:17;;;;;;;4.03;1.20;;;;;;;;;;4997506;28;20035;-79
2023/06/03 08:06:49;;;;;;;3.55;1.02;;;;;;;;;;4999757;28;20046;-79
2023/06/03 08:09:20;;;;;;;1.80;1.10;;;;;;;;;;4999482;28;20023;-80
2023/06/03 08:11:46;;;;;;;2.70;1.00;;;;;;;;;;4997723;28;20023;-77
2023/06/03 08:14:12;;;;;;;2.22;1.20;;;;;;;;;;4994331;28;20027;-79
2023/06/03 08:16:38;;;;;;;6.80;1.50;;;;;;;;;;4998740;28;20019;-79
2023/06/03 08:19:10;;;;;;;3.63;1.33;;;;;;;;;;5001333;28;20043;-79
2023/06/03 08:21:37;;;;;;;2.85;1.00;;;;;;;;;;4999625;28;20107;-78
2023/06/03 08:24:03;;;;;;;4.13;1.35;;;;;;;;;;5000792;28;20061;-77
2023/06/03 08:26:30;;;;;;;5.53;1.33;;;;;;;;;;4997562;28;20030;-79
2023/06/03 08:28:56;;;;;;;6.03;1.40;;;;;;;;;;4993574;28;20042;-79
2023/06/03 08:31:22;;;;;;;7.80;1.33;;;;;;;;;;4996466;28;20073;-78
2023/06/03 08:33:50;;;;;;;4.05;1.40;;;;;;;;;;4996330;28;20023;-78
2023/06/03 08:36:18;;;;;;;3.75;1.27;;;;;;;;;;4996788;28;20083;-79
2023/06/03 08:38:44;;;;;;;5.15;1.63;;;;;;;;;;4997445;28;20023;-78
2023/06/03 08:41:10;;;;;;;4.57;1.20;;;;;;;;;;4999438;28;20017;-78
2023/06/03 08:43:44;;;;;;;4.50;2.08;;;;;;;;;;4994508;28;20034;-79
2023/06/03 08:46:22;;;;;;;5.07;1.55;;;;;;;;;;4994921;28;20041;-80
2023/06/03 08:48:57;;;;;;;3.05;1.60;;;;;;;;;;5000452;28;20030;-78
2023/06/03 08:51:23;;;;;;;4.00;1.38;;;;;;;;;;4994257;28;20098;-79
2023/06/03 08:53:53;;;;;;;8.90;1.40;;;;;;;;;;4979467;28;20038;-79
2023/06/03 08:56:20;;;;;;;8.15;1.73;;;;;;;;;;4996267;28;20053;-79
2023/06/03 08:58:57;;;;;;;2.22;1.25;;;;;;;;;;4993011;28;20039;-79
2023/06/03 09:01:28;;;;;;;4.82;1.20;;;;;;;;;;4994449;28;20031;-80
2023/06/03 09:03:55;;;;;;;5.13;1.50;;;;;;;;;;4994056;28;20045;-80
2023/06/03 09:06:21;;;;;;;4.57;1.35;;;;;;;;;;4991889;28;20018;-78
2023/06/03 09:08:52;;;;;;;4.53;1.42;;;;;;;;;;4991322;28;20055;-79
2023/06/03 09:11:19;;;;;;;2.10;1.30;;;;;;;;;;4988647;28;20456;-79
2023/06/03 09:13:46;;;;;;;5.03;1.45;;;;;;;;;;4987368;28;20041;-81
2023/06/03 09:16:13;;;;;;;3.65;1.27;;;;;;;;;;4986756;28;20061;-80
2023/06/03 09:18:41;;;;;;;5.30;1.50;;;;;;;;;;4987734;28;20515;-80
2023/06/03 09:21:10;;;;;;;5.30;1.38;;;;;;;;;;4989071;28;20026;-81
2023/06/03 09:23:38;;;;;;;4.88;1.40;;;;;;;;;;4990135;28;20035;-80
2023/06/03 09:26:04;;;;;;;8.60;1.55;;;;;;;;;;4984977;28;20030;-80
2023/06/03 09:28:30;;;;;;;3.33;1.27;;;;;;;;;;4983985;28;20027;-79
2023/06/03 09:30:56;;;;;;;5.75;2.33;;;;;;;;;;4989642;28;20027;-79
2023/06/03 09:33:22;;;;;;;5.38;1.80;;;;;;;;;;4985028;28;20031;-80
2023/06/03 09:36:07;;;;;;;3.72;1.85;;;;;;;;;;4986471;28;20042;-82
2023/06/03 09:38:48;;;;;;;4.45;1.23;;;;;;;;;;4981813;28;20039;-80
2023/06/03 09:41:15;;;;;;;4.70;1.80;;;;;;;;;;4987293;28;20049;-82
2023/06/03 09:43:51;;;;;;;2.72;1.15;;;;;;;;;;4976856;28;20030;-83
2023/06/03 09:46:17;;;;;;;3.88;1.52;;;;;;;;;;4982741;28;20042;-80
2023/06/03 09:48:43;;;;;;;3.17;1.77;;;;;;;;;;4982945;28;20039;-81
2023/06/03 09:51:09;;;;;;;6.65;1.95;;;;;;;;;;4990226;28;20027;-80
2023/06/03 09:53:35;;;;;;;4.40;1.40;;;;;;;;;;4983706;28;20502;-81
2023/06/03 09:56:20;;;;;;;4.00;1.95;;;;;;;;;;4983374;28;20030;-81
2023/06/03 09:58:46;;;;;;;8.32;2.13;;;;;;;;;;4987512;28;20034;-82
2023/06/03 10:01:12;;;;;;;10.57;2.05;;;;;;;;;;4968504;28;20093;-82
2023/06/03 10:03:38;;;;;;;13.88;3.17;;;;;;;;;;4972003;28;20062;-84
2023/06/03 10:06:17;;;;;;;4.10;1.65;;;;;;;;;;4972082;28;20018;-85
2023/06/03 10:08:44;;;;;;;2.65;1.33;;;;;;;;;;4968920;28;20038;-85
2023/06/03 10:11:10;;;;;;;4.20;1.60;;;;;;;;;;4970856;28;20049;-84
2023/06/03 10:13:36;;;;;;;2.53;1.50;;;;;;;;;;4970685;28;20031;-84
2023/06/03 10:16:09;;;;;;;3.15;1.63;;;;;;;;;;4972771;28;20567;-85
2023/06/03 10:18:40;;;;;;;3.47;1.38;;;;;;;;;;4970939;28;20034;-83
2023/06/03 10:21:15;;;;;;;3.03;1.48;;;;;;;;;;4973505;28;20106;-84
2023/06/03 10:23:42;;;;;;;3.08;1.65;;;;;;;;;;4967672;28;20341;-84
2023/06/03 10:26:09;;;;;;;7.93;1.60;;;;;;;;;;4968296;28;20097;-84
2023/06/03 10:28:38;;;;;;;4.22;1.50;;;;;;;;;;4973732;28;20035;-85
2023/06/03 10:31:05;;;;;;;3.83;1.30;;;;;;;;;;4973719;28;20039;-85
2023/06/03 10:33:32;;;;;;;8.13;1.60;;;;;;;;;;4970983;28;20038;-85
2023/06/03 10:35:59;;;;;;;3.53;1.38;;;;;;;;;;4968399;28;20031;-84
2023/06/03 10:38:25;;;;;;;6.10;1.50;;;;;;;;;;4967543;28;20041;-85
2023/06/03 10:40:52;;;;;;;2.30;1.30;;;;;;;;;;4964532;28;20023;-85
2023/06/03 10:43:18;;;;;;;4.57;1.45;;;;;;;;;;4973604;28;20022;-84
2023/06/03 10:45:44;;;;;;;2.13;1.30;;;;;;;;;;4963366;28;20063;-84
2023/06/03 10:48:13;;;;;;;2.78;1.33;;;;;;;;;;4969182;28;20027;-83
2023/06/03 10:50:39;;;;;;;4.53;1.33;;;;;;;;;;4971528;28;20034;-84
2023/06/03 10:53:24;;;;;;;4.00;1.23;;;;;;;;;;4966650;28;20562;-85
2023/06/03 10:55:53;;;;;;;4.82;1.48;;;;;;;;;;4972303;28;20034;-85
2023/06/03 10:58:21;;;;;;;7.50;1.55;;;;;;;;;;4968926;28;20065;-85
2023/06/03 11:00:53;;;;;;;5.90;1.70;;;;;;;;;;4965329;28;20093;-86
2023/06/03 11:03:21;;;;;;;3.58;1.45;;;;;;;;;;4963374;28;20078;-82
2023/06/03 11:05:47;;;;;;;9.50;1.75;;;;;;;;;;4971443;28;20109;-84
2023/06/03 11:08:15;;;;;;;6.78;1.90;;;;;;;;;;4969201;28;20037;-85
2023/06/03 11:10:42;;;;;;;1.85;1.30;;;;;;;;;;4967312;28;20023;-84
2023/06/03 11:13:10;;;;;;;3.88;1.63;;;;;;;;;;4951076;28;20063;-84
2023/06/03 11:15:55;;;;;;;3.35;1.67;;;;;;;;;;4972223;28;20027;-85
2023/06/03 11:18:21;;;;;;;8.43;1.67;;;;;;;;;;4970810;28;20098;-86
2023/06/03 11:20:47;;;;;;;6.60;1.85;;;;;;;;;;4971652;28;20047;-83
2023/06/03 11:23:32;;;;;;;2.08;1.38;;;;;;;;;;4966101;28;20042;-83
2023/06/03 11:25:58;;;;;;;8.63;1.80;;;;;;;;;;4969062;28;20027;-85
2023/06/03 11:28:32;;;;;;;2.75;1.23;;;;;;;;;;4963496;28;20466;-83
2023/06/03 11:30:58;;;;;;;10.48;2.05;;;;;;;;;;4967509;28;20023;-83
2023/06/03 11:33:24;;;;;;;4.35;1.60;;;;;;;;;;4968623;28;20041;-83
2023/06/03 11:35:50;;;;;;;3.47;1.52;;;;;;;;;;4969280;28;20456;-84
2023/06/03 11:38:16;;;;;;;4.68;1.20;;;;;;;;;;4964346;28;20098;-83
2023/06/03 11:40:44;;;;;;;4.22;1.95;;;;;;;;;;4967697;28;20043;-83
2023/06/03 11:43:10;;;;;;;6.88;1.70;;;;;;;;;;4967740;28;20498;-84
2023/06/03 11:45:39;;;;;;;4.10;1.83;;;;;;;;;;4971894;28;20027;-83
2023/06/03 11:48:10;;;;;;;4.15;1.52;;;;;;;;;;4969633;28;20058;-85
2023/06/03 11:50:58;;;;;;;2.75;1.40;;;;;;;;;;4972456;28;20123;-85
2023/06/03 11:53:39;;;;;;;5.68;1.88;;;;;;;;;;4973007;28;20121;-85
2023/06/03 11:56:13;;;;;;;6.18;1.23;;;;;;;;;;4962706;28;20027;-85
2023/06/03 11:58:42;;;;;;;11.45;1.40;;;;;;;;;;4965940;28;20114;-84
2023/06/03 12:01:17;;;;;;;5.13;1.60;;;;;;;;;;4970158;28;20063;-84
2023/06/03 12:03:58;;;;;;;4.60;1.83;;;;;;;;;;4965394;28;20094;-83
2023/06/03 12:06:25;;;;;;;3.58;1.50;;;;;;;;;;4969438;28;20031;-83
2023/06/03 12:08:51;;;;;;;4.10;1.33;;;;;;;;;;4975507;28;20099;-83
2023/06/03 12:11:24;;;;;;;5.95;1.60;;;;;;;;;;4971221;28;20077;-84
2023/06/03 12:13:51;;;;;;;9.80;1.70;;;;;;;;;;4972010;28;20035;-86
2023/06/03 12:16:36;;;;;;;5.63;1.80;;;;;;;;;;4969653;28;20130;-83
2023/06/03 12:19:07;;;;;;;2.60;1.60;;;;;;;;;;4968866;28;20027;-84
2023/06/03 12:21:33;;;;;;;2.13;1.30;;;;;;;;;;4968741;28;20030;-83
2023/06/03 12:24:07;;;;;;;2.97;1.75;;;;;;;;;;4965295;28;20098;-84
2023/06/03 12:26:41;;;;;;;3.28;1.48;;;;;;;;;;4974016;28;20098;-83
2023/06/03 12:29:08;;;;;;;3.15;1.27;;;;;;;;;;4971386;28;20055;-84
2023/06/03 12:31:34;;;;;;;3.58;1.55;;;;;;;;;;4974083;28;20031;-84
2023/06/03 12:34:00;;;;;;;4.82;1.52;;;;;;;;;;4966169;28;20027;-83
2023/06/03 12:36:47;;;;;;;2.05;1.23;;;;;;;;;;4968362;28;20031;-83
2023/06/03 12:39:13;;;;;;;4.45;1.58;;;;;;;;;;4975662;28;20046;-84
2023/06/03 12:41:48;;;;;;;6.55;1.25;;;;;;;;;;4978764;28;20186;-85
2023/06/03 12:44:14;;;;;;;3.50;1.80;;;;;;;;;;4978752;28;20027;-84
2023/06/03 12:46:40;;;;;;;4.18;1.27;;;;;;;;;;4978784;28;20031;-83
2023/06/03 12:49:13;;;;;;;4.68;1.58;;;;;;;;;;4983019;28;20031;-84
2023/06/03 12:51:39;;;;;;;5.03;1.30;;;;;;;;;;4975103;28;20038;-84
2023/06/03 12:54:05;;;;;;;4.82;1.40;;;;;;;;;;4972013;28;20357;-84
2023/06/03 12:56:33;;;;;;;3.08;1.13;;;;;;;;;;4977818;28;20035;-83
2023/06/03 12:59:00;;;;;;;2.97;1.45;;;;;;;;;;4980798;28;20027;-84
2023/06/03 13:01:26;;;;;;;5.82;1.20;;;;;;;;;;4976505;28;20030;-84
2023/06/03 13:03:54;;;;;;;3.85;1.38;;;;;;;;;;4970554;28;20027;-84
2023/06/03 13:06:21;;;;;;;4.60;1.40;;;;;;;;;;4973838;28;20045;-84
2023/06/03 13:08:50;;;;;;;3.70;1.75;;;;;;;;;;4968840;28;20031;-84
2023/06/03 13:11:16;;;;;;;6.10;1.65;;;;;;;;;;4965575;28;20089;-84
2023/06/03 13:13:45;;;;;;;2.78;1.30;;;;;;;;;;4973843;28;20511;-83
2023/06/03 13:16:11;;;;;;;2.25;1.25;;;;;;;;;;4966180;28;20448;-82
2023/06/03 13:18:37;;;;;;;4.35;1.77;;;;;;;;;;4967633;28;20030;-82
2023/06/03 13:21:03;;;;;;;2.38;1.27;;;;;;;;;;4966216;28;20768;-83
2023/06/03 13:23:29;;;;;;;4.68;1.00;;;;;;;;;;4966207;28;20054;-84
2023/06/03 13:25:56;;;;;;;3.35;1.27;;;;;;;;;;4966414;28;20438;-83
2023/06/03 13:28:22;;;;;;;6.10;1.33;;;;;;;;;;4967366;28;20023;-85
2023/06/03 13:30:49;;;;;;;3.50;1.15;;;;;;;;;;4973612;28;20031;-85
2023/06/03 13:33:15;;;;;;;7.80;1.60;;;;;;;;;;4973461;28;20098;-85
2023/06/03 13:35:43;;;;;;;4.60;1.02;;;;;;;;;;4971598;28;20031;-86
2023/06/03 13:38:09;;;;;;;5.32;1.55;;;;;;;;;;4971857;28;20027;-84
2023/06/03 13:40:38;;;;;;;5.57;1.35;;;;;;;;;;4969400;28;20037;-84
2023/06/03 13:43:04;;;;;;;3.28;1.17;;;;;;;;;;4967007;28;20089;-83
2023/06/03 13:45:33;;;;;;;8.30;1.20;;;;;;;;;;4973715;28;20424;-84
2023/06/03 13:47:59;;;;;;;2.53;1.00;;;;;;;;;;4972474;28;20093;-85
2023/06/03 13:50:27;;;;;;;4.38;1.00;;;;;;;;;;4968872;28;20031;-85
2023/06/03 13:52:53;;;;;;;8.45;1.30;;;;;;;;;;4966562;28;20087;-84
2023/06/03 13:55:19;;;;;;;9.23;1.00;;;;;;;;;;4976279;28;20024;-84
2023/06/03 13:57:45;;;;;;;2.95;1.23;;;;;;;;;;4971328;28;20236;-84
2023/06/03 14:00:19;;;;;;;11.15;1.30;;;;;;;;;;4972135;28;20209;-86
2023/06/03 14:02:45;;;;;;;5.20;1.25;;;;;;;;;;4969753;28;20031;-84
2023/06/03 14:05:11;;;;;;;2.97;0.90;;;;;;;;;;4970635;28;20052;-85
2023/06/03 14:07:37;;;;;;;2.50;1.10;;;;;;;;;;4970876;28;20082;-86
2023/06/03 14:10:05;;;;;;;2.20;0.80;;;;;;;;;;4967741;28;20035;-82
2023/06/03 14:12:32;;;;;;;5.38;1.10;;;;;;;;;;4968301;28;20030;-85
2023/06/03 14:14:58;;;;;;;7.15;1.10;;;;;;;;;;4967637;28;20023;-85
2023/06/03 14:17:24;;;;;;;1.33;0.73;;;;;;;;;;4968471;28;20040;-83
2023/06/03 14:19:50;;;;;;;4.22;1.50;;;;;;;;;;4963924;28;20117;-85
2023/06/03 14:22:19;;;;;;;2.38;0.80;;;;;;;;;;4969087;28;20127;-85
2023/06/03 14:24:46;;;;;;;5.38;1.00;;;;;;;;;;4973043;28;20034;-85
2023/06/03 14:27:12;;;;;;;3.22;1.17;;;;;;;;;;4965867;28;20023;-84
2023/06/03 14:29:38;;;;;;;6.10;1.20;;;;;;;;;;4969579;28;20041;-85
2023/06/03 14:32:04;;;;;;;6.68;1.35;;;;;;;;;;4971344;28;20027;-82
2023/06/03 14:34:32;;;;;;;1.70;0.77;;;;;;;;;;4976289;28;20042;-83
2023/06/03 14:36:59;;;;;;;4.32;1.70;;;;;;;;;;4963791;28;20026;-84
2023/06/03 14:39:24;;;;;;;5.00;1.02;;;;;;;;;;4973140;28;20042;-85
2023/06/03 14:41:50;;;;;;;1.50;0.90;;;;;;;;;;4964729;28;20058;-84
2023/06/03 14:44:16;;;;;;;3.90;0.95;;;;;;;;;;4967132;28;20022;-86
2023/06/03 14:46:42;;;;;;;5.60;0.98;;;;;;;;;;4964658;28;20031;-85
2023/06/03 14:49:08;;;;;;;3.80;1.30;;;;;;;;;;4970895;28;20041;-86